createdAt,value
2023-02-01T00:02:59.564Z,1.73
2023-02-01T00:05:29.413Z,1.13
2023-02-01T00:07:59.226Z,1.70
2023-02-01T00:10:29.288Z,1.77
2023-02-01T00:15:28.619Z,1.92
2023-02-01T00:17:58.788Z,2.00
2023-02-01T00:20:28.654Z,1.80
2023-02-01T00:22:58.735Z,2.10
2023-02-01T00:25:28.519Z,1.83
2023-02-01T00:30:30.867Z,2.08
2023-02-01T00:35:30.779Z,2.28
2023-02-01T00:38:01.735Z,1.88
2023-02-01T00:40:33.231Z,1.80
2023-02-01T00:43:03.248Z,2.33
2023-02-01T00:45:33.768Z,1.55
2023-02-01T00:48:04.814Z,2.33
2023-02-01T00:50:35.149Z,2.70
2023-02-01T00:53:05.208Z,2.60
2023-02-01T00:58:04.497Z,1.75
2023-02-01T01:00:35.657Z,1.70
2023-02-01T01:03:19.545Z,1.90
2023-02-01T01:05:51.017Z,1.45
2023-02-01T01:08:21.013Z,1.73
2023-02-01T01:10:51.499Z,1.80
2023-02-01T01:13:22.132Z,2.03
2023-02-01T01:15:52.952Z,1.70
2023-02-01T01:18:22.754Z,2.00
2023-02-01T01:20:52.577Z,1.55
2023-02-01T01:23:22.353Z,2.17
2023-02-01T01:25:52.715Z,2.15
2023-02-01T01:28:23.065Z,2.20
2023-02-01T01:30:53.236Z,2.05
2023-02-01T01:33:23.411Z,2.28
2023-02-01T01:38:22.772Z,2.38
2023-02-01T01:40:52.603Z,2.67
2023-02-01T01:43:26.169Z,2.10
2023-02-01T01:48:32.660Z,1.77
2023-02-01T01:51:12.776Z,2.40
2023-02-01T01:53:49.054Z,1.80
2023-02-01T01:56:19.681Z,2.50
2023-02-01T01:58:50.603Z,2.85
2023-02-01T02:01:20.773Z,2.25
2023-02-01T02:03:50.973Z,2.33
2023-02-01T02:06:30.706Z,2.30
2023-02-01T02:09:00.782Z,2.70
2023-02-01T02:11:30.651Z,2.35
2023-02-01T02:14:01.210Z,2.80
2023-02-01T02:16:46.333Z,2.30
2023-02-01T02:19:48.568Z,2.45
2023-02-01T02:23:00.833Z,2.53
2023-02-01T02:25:52.135Z,2.10
2023-02-01T02:28:49.721Z,3.05
2023-02-01T02:31:50.116Z,2.60
2023-02-01T02:34:20.150Z,2.22
2023-02-01T02:39:36.743Z,2.55
2023-02-01T02:42:32.926Z,2.60
2023-02-01T02:45:46.342Z,2.25
2023-02-01T02:48:52.617Z,2.60
2023-02-01T02:51:53.361Z,3.05
2023-02-01T02:54:47.469Z,3.72
2023-02-01T02:57:53.095Z,3.38
2023-02-01T03:00:44.570Z,3.47
2023-02-01T03:03:32.716Z,4.35
2023-02-01T03:06:02.932Z,4.38
2023-02-01T03:08:34.395Z,4.40
2023-02-01T03:11:12.727Z,4.10
2023-02-01T03:13:59.543Z,3.88
2023-02-01T03:16:46.283Z,3.97
2023-02-01T03:19:19.680Z,4.30
2023-02-01T03:22:10.194Z,4.43
2023-02-01T03:24:49.335Z,4.15
2023-02-01T03:27:55.803Z,3.45
2023-02-01T03:30:37.039Z,3.60
2023-02-01T03:33:16.138Z,3.40
2023-02-01T03:36:20.396Z,3.88
2023-02-01T03:39:28.459Z,2.97
2023-02-01T03:42:22.085Z,3.05
2023-02-01T03:44:55.871Z,3.33
2023-02-01T03:47:30.110Z,3.15
2023-02-01T03:50:13.484Z,2.70
2023-02-01T03:53:06.003Z,2.90
2023-02-01T03:55:37.422Z,2.83
2023-02-01T03:58:10.288Z,2.40
2023-02-01T04:00:42.944Z,3.20
2023-02-01T04:03:13.325Z,2.28
2023-02-01T04:05:43.353Z,2.63
2023-02-01T04:10:42.921Z,2.50
2023-02-01T04:13:13.108Z,2.60
2023-02-01T04:15:43.049Z,2.00
2023-02-01T04:18:13.113Z,2.15
2023-02-01T04:20:45.013Z,2.50
2023-02-01T04:23:16.246Z,2.00
2023-02-01T04:25:46.337Z,2.33
2023-02-01T04:30:46.451Z,2.28
2023-02-01T04:33:16.693Z,2.03
2023-02-01T04:38:15.936Z,2.03
2023-02-01T04:40:46.040Z,2.08
2023-02-01T04:45:50.925Z,2.40
2023-02-01T04:48:23.996Z,2.80
2023-02-01T04:50:55.311Z,2.25
2023-02-01T04:53:25.383Z,2.35
2023-02-01T04:55:56.210Z,2.70
2023-02-01T04:58:26.405Z,2.42
2023-02-01T05:00:56.416Z,1.98
2023-02-01T05:03:27.540Z,2.20
2023-02-01T05:05:57.906Z,2.22
2023-02-01T05:08:29.116Z,2.40
2023-02-01T05:11:00.946Z,2.50
2023-02-01T05:13:50.333Z,2.53
2023-02-01T05:16:20.398Z,2.03
2023-02-01T05:18:50.426Z,2.70
2023-02-01T05:21:20.814Z,1.83
2023-02-01T05:24:08.709Z,2.25
2023-02-01T05:26:40.594Z,1.88
2023-02-01T05:29:12.060Z,2.47
2023-02-01T05:31:42.408Z,2.50
2023-02-01T05:34:12.530Z,2.65
2023-02-01T05:36:42.849Z,2.40
2023-02-01T05:39:13.182Z,2.30
2023-02-01T05:44:13.537Z,2.20
2023-02-01T05:46:43.535Z,2.33
2023-02-01T05:49:13.620Z,2.50
2023-02-01T05:54:13.500Z,2.92
2023-02-01T05:56:43.626Z,2.92
2023-02-01T05:59:13.539Z,2.60
2023-02-01T06:01:43.410Z,2.35
2023-02-01T06:04:13.470Z,2.90
2023-02-01T06:09:13.406Z,2.63
2023-02-01T06:11:43.509Z,2.17
2023-02-01T06:16:43.077Z,2.58
2023-02-01T06:21:42.463Z,2.28
2023-02-01T06:24:12.880Z,2.22
2023-02-01T06:26:43.133Z,2.95
2023-02-01T06:29:13.839Z,2.67
2023-02-01T06:31:45.029Z,2.83
2023-02-01T06:34:15.135Z,2.40
2023-02-01T06:36:45.173Z,4.32
2023-02-01T06:39:17.973Z,3.20
2023-02-01T06:41:51.715Z,3.03
2023-02-01T06:44:22.952Z,3.20
2023-02-01T06:46:53.096Z,2.88
2023-02-01T06:49:23.628Z,3.75
2023-02-01T06:51:53.988Z,4.03
2023-02-01T06:54:24.258Z,3.15
2023-02-01T06:56:54.106Z,3.45
2023-02-01T06:59:24.327Z,3.42
2023-02-01T07:01:54.367Z,3.80
2023-02-01T07:04:24.359Z,4.80
2023-02-01T07:06:54.403Z,4.55
2023-02-01T07:09:27.681Z,3.85
2023-02-01T07:11:57.723Z,5.50
2023-02-01T07:14:27.490Z,5.18
2023-02-01T07:16:57.588Z,5.53
2023-02-01T07:21:56.892Z,6.13
2023-02-01T07:26:56.256Z,6.90
2023-02-01T07:31:55.736Z,7.00
2023-02-01T07:34:25.504Z,7.20
2023-02-01T07:36:55.344Z,9.75
2023-02-01T07:39:25.379Z,9.32
2023-02-01T07:41:55.441Z,8.32
2023-02-01T07:44:25.469Z,8.63
2023-02-01T07:46:55.503Z,9.25
2023-02-01T07:49:25.585Z,7.88
2023-02-01T07:51:55.854Z,8.45
2023-02-01T07:54:26.191Z,8.27
2023-02-01T07:59:25.835Z,7.72
2023-02-01T08:01:55.690Z,7.65
2023-02-01T08:06:54.979Z,8.45
2023-02-01T08:09:24.970Z,8.23
2023-02-01T08:11:54.997Z,7.38
2023-02-01T08:14:25.034Z,8.50
2023-02-01T08:19:24.361Z,7.30
2023-02-01T08:21:54.462Z,6.95
2023-02-01T08:26:54.080Z,6.72
2023-02-01T08:31:53.961Z,4.85
2023-02-01T08:34:24.144Z,5.15
2023-02-01T08:39:29.761Z,3.78
2023-02-01T08:42:17.949Z,4.40
2023-02-01T08:44:49.264Z,3.92
2023-02-01T08:47:19.236Z,3.92
2023-02-01T08:49:49.262Z,3.40
2023-02-01T08:52:19.262Z,4.10
2023-02-01T08:54:49.609Z,4.70
2023-02-01T08:57:19.767Z,5.28
2023-02-01T08:59:49.681Z,5.53
2023-02-01T09:02:20.436Z,6.28
2023-02-01T09:04:50.502Z,4.97
2023-02-01T09:07:20.973Z,4.70
2023-02-01T09:09:51.149Z,4.45
2023-02-01T09:12:21.468Z,5.60
2023-02-01T09:14:51.701Z,4.68
2023-02-01T09:17:21.851Z,4.80
2023-02-01T09:22:21.300Z,5.82
2023-02-01T09:24:51.512Z,7.10
2023-02-01T09:27:22.994Z,6.25
2023-02-01T09:29:54.591Z,7.10
2023-02-01T09:32:26.150Z,7.20
2023-02-01T09:34:56.302Z,6.80
2023-02-01T09:37:26.352Z,6.32
2023-02-01T09:39:56.438Z,5.18
2023-02-01T09:42:53.700Z,4.45
2023-02-01T09:45:36.230Z,3.20
2023-02-01T09:50:44.803Z,2.90
2023-02-01T09:53:31.847Z,2.63
2023-02-01T09:56:24.686Z,2.78
2023-02-01T09:59:04.625Z,2.90
2023-02-01T10:01:34.983Z,2.65
2023-02-01T10:04:09.758Z,2.90
2023-02-01T10:06:45.831Z,3.40
2023-02-01T10:09:33.002Z,3.20
2023-02-01T10:12:20.913Z,3.05
2023-02-01T10:15:22.259Z,3.20
2023-02-01T10:18:10.479Z,2.35
2023-02-01T10:21:16.946Z,2.72
2023-02-01T10:23:57.424Z,2.38
2023-02-01T10:26:34.977Z,2.38
2023-02-01T10:29:10.256Z,2.75
2023-02-01T10:31:41.142Z,2.30
2023-02-01T10:34:23.426Z,2.17
2023-02-01T10:37:03.813Z,2.22
2023-02-01T10:39:34.050Z,2.45
2023-02-01T10:42:04.169Z,2.40
2023-02-01T10:47:08.073Z,2.58
2023-02-01T10:50:00.920Z,2.17
2023-02-01T10:52:46.223Z,2.33
2023-02-01T10:55:48.739Z,3.22
2023-02-01T10:58:31.491Z,2.42
2023-02-01T11:01:06.303Z,2.58
2023-02-01T11:03:36.399Z,2.55
2023-02-01T11:09:19.161Z,2.88
2023-02-01T11:11:52.580Z,2.38
2023-02-01T11:14:40.556Z,3.25
2023-02-01T11:17:31.680Z,3.15
2023-02-01T11:20:19.653Z,3.20
2023-02-01T11:22:55.924Z,3.08
2023-02-01T11:27:58.685Z,2.90
2023-02-01T11:30:42.574Z,2.90
2023-02-01T11:33:21.395Z,3.13
2023-02-01T11:35:51.931Z,2.78
2023-02-01T11:38:33.587Z,3.13
2023-02-01T11:41:23.133Z,2.92
2023-02-01T11:44:01.478Z,2.75
2023-02-01T11:46:36.606Z,2.78
2023-02-01T11:49:25.023Z,2.92
2023-02-01T11:52:20.579Z,2.70
2023-02-01T11:55:11.785Z,2.75
2023-02-01T11:58:12.326Z,2.45
2023-02-01T12:01:01.574Z,2.70
2023-02-01T12:04:07.147Z,2.72
2023-02-01T12:07:08.277Z,2.63
2023-02-01T12:10:17.843Z,2.35
2023-02-01T12:13:04.719Z,3.67
2023-02-01T12:15:58.817Z,3.33
2023-02-01T12:19:13.331Z,2.88
2023-02-01T12:22:00.968Z,2.72
2023-02-01T12:24:36.971Z,3.83
2023-02-01T12:27:09.850Z,3.15
2023-02-01T12:30:15.737Z,3.13
2023-02-01T12:33:15.257Z,3.00
2023-02-01T12:36:03.525Z,2.78
2023-02-01T12:39:00.042Z,2.80
2023-02-01T12:41:48.217Z,2.72
2023-02-01T12:44:44.275Z,2.83
2023-02-01T12:47:20.426Z,2.58
2023-02-01T12:52:31.446Z,2.83
2023-02-01T12:55:10.803Z,2.90
2023-02-01T12:57:45.608Z,2.88
2023-02-01T13:00:24.550Z,2.58
2023-02-01T13:03:05.814Z,2.85
2023-02-01T13:06:03.000Z,2.50
2023-02-01T13:09:12.366Z,2.90
2023-02-01T13:11:49.208Z,2.85
2023-02-01T13:14:37.506Z,3.00
2023-02-01T13:17:27.074Z,2.35
2023-02-01T13:20:09.766Z,3.00
2023-02-01T13:23:04.859Z,3.05
2023-02-01T13:25:51.896Z,3.13
2023-02-01T13:28:33.105Z,3.17
2023-02-01T13:31:41.497Z,2.88
2023-02-01T13:34:54.990Z,2.85
2023-02-01T13:37:31.197Z,2.90
2023-02-01T13:42:55.406Z,2.65
2023-02-01T13:45:30.474Z,2.50
2023-02-01T13:48:05.963Z,2.90
2023-02-01T13:50:43.106Z,2.50
2023-02-01T13:53:13.272Z,3.20
2023-02-01T13:56:15.404Z,3.17
2023-02-01T13:58:47.721Z,3.50
2023-02-01T14:01:38.251Z,3.22
2023-02-01T14:04:29.700Z,3.05
2023-02-01T14:07:00.660Z,2.92
2023-02-01T14:09:39.644Z,3.13
2023-02-01T14:12:41.791Z,2.63
2023-02-01T14:15:25.530Z,3.25
2023-02-01T14:17:56.907Z,2.60
2023-02-01T14:20:45.963Z,3.45
2023-02-01T14:23:23.286Z,3.42
2023-02-01T14:26:06.271Z,3.38
2023-02-01T14:28:41.678Z,3.42
2023-02-01T14:31:28.985Z,4.13
2023-02-01T14:34:02.692Z,2.95
2023-02-01T14:36:45.459Z,3.30
2023-02-01T14:39:33.622Z,3.75
2023-02-01T14:42:08.231Z,3.20
2023-02-01T14:44:39.582Z,3.17
2023-02-01T14:47:31.890Z,2.97
2023-02-01T14:50:39.566Z,3.50
2023-02-01T14:53:15.947Z,3.40
2023-02-01T14:56:15.382Z,2.80
2023-02-01T14:58:47.125Z,3.00
2023-02-01T15:01:23.945Z,3.63
2023-02-01T15:04:14.220Z,2.92
2023-02-01T15:06:46.987Z,3.88
2023-02-01T15:09:34.911Z,3.10
2023-02-01T15:12:08.123Z,3.22
2023-02-01T15:14:41.570Z,3.20
2023-02-01T15:17:29.660Z,3.63
2023-02-01T15:20:02.068Z,4.10
2023-02-01T15:22:33.794Z,2.97
2023-02-01T15:25:05.420Z,3.78
2023-02-01T15:27:36.485Z,3.65
2023-02-01T15:30:29.084Z,3.25
2023-02-01T15:33:19.807Z,4.13
2023-02-01T15:35:52.486Z,3.63
2023-02-01T15:38:29.362Z,3.42
2023-02-01T15:41:04.764Z,3.03
2023-02-01T15:43:40.126Z,3.53
2023-02-01T15:46:13.872Z,3.10
2023-02-01T15:49:05.472Z,3.03
2023-02-01T15:51:35.789Z,3.75
2023-02-01T15:54:12.362Z,3.63
2023-02-01T15:56:44.063Z,3.70
2023-02-01T15:59:44.074Z,3.60
2023-02-01T16:02:39.628Z,2.65
2023-02-01T16:05:38.163Z,3.33
2023-02-01T16:08:16.307Z,3.22
2023-02-01T16:10:49.651Z,2.80
2023-02-01T16:13:22.211Z,3.10
2023-02-01T16:15:52.343Z,3.42
2023-02-01T16:18:22.871Z,2.55
2023-02-01T16:20:54.056Z,2.65
2023-02-01T16:23:24.193Z,3.25
2023-02-01T16:25:54.277Z,3.03
2023-02-01T16:28:24.431Z,3.25
2023-02-01T16:30:54.929Z,3.72
2023-02-01T16:33:26.261Z,3.30
2023-02-01T16:36:04.191Z,3.50
2023-02-01T16:38:34.359Z,3.25
2023-02-01T16:41:07.813Z,3.03
2023-02-01T16:43:38.568Z,2.58
2023-02-01T16:46:14.710Z,2.70
2023-02-01T16:48:48.476Z,2.92
2023-02-01T16:51:19.115Z,2.70
2023-02-01T16:53:54.623Z,2.75
2023-02-01T16:58:56.540Z,2.47
2023-02-01T17:01:27.009Z,2.75
2023-02-01T17:03:58.026Z,2.83
2023-02-01T17:06:31.936Z,3.10
2023-02-01T17:09:04.533Z,3.53
2023-02-01T17:11:34.720Z,2.63
2023-02-01T17:14:19.557Z,2.63
2023-02-01T17:16:51.911Z,2.75
2023-02-01T17:19:26.155Z,2.75
2023-02-01T17:22:00.576Z,2.55
2023-02-01T17:24:46.776Z,2.08
2023-02-01T17:27:19.564Z,3.33
2023-02-01T17:29:50.316Z,3.40
2023-02-01T17:32:27.048Z,2.15
2023-02-01T17:34:59.675Z,2.00
2023-02-01T17:37:33.173Z,1.90
2023-02-01T17:40:03.641Z,2.13
2023-02-01T17:42:33.798Z,2.38
2023-02-01T17:45:25.177Z,2.00
2023-02-01T17:47:56.201Z,2.08
2023-02-01T17:50:30.198Z,2.40
2023-02-01T17:53:00.414Z,2.17
2023-02-01T17:55:31.161Z,2.33
2023-02-01T17:58:01.193Z,2.08
2023-02-01T18:00:31.671Z,2.10
2023-02-01T18:03:02.866Z,2.05
2023-02-01T18:05:41.863Z,2.10
2023-02-01T18:08:12.134Z,1.98
2023-02-01T18:10:42.260Z,2.00
2023-02-01T18:13:13.945Z,2.05
2023-02-01T18:15:44.271Z,1.70
2023-02-01T18:18:14.256Z,1.98
2023-02-01T18:20:47.122Z,1.80
2023-02-01T18:23:25.231Z,2.05
2023-02-01T18:25:55.477Z,1.92
2023-02-01T18:28:25.647Z,1.85
2023-02-01T18:30:55.948Z,2.00
2023-02-01T18:33:27.120Z,1.70
2023-02-01T18:35:57.322Z,1.75
2023-02-01T18:38:27.401Z,2.20
2023-02-01T18:41:02.408Z,1.92
2023-02-01T18:43:32.489Z,1.58
2023-02-01T18:48:32.322Z,1.80
2023-02-01T18:51:02.440Z,1.80
2023-02-01T18:53:32.531Z,1.92
2023-02-01T18:56:04.137Z,1.90
2023-02-01T18:58:34.919Z,1.40
2023-02-01T19:01:14.234Z,1.73
2023-02-01T19:03:45.736Z,1.25
2023-02-01T19:06:28.323Z,1.63
2023-02-01T19:08:58.573Z,1.83
2023-02-01T19:11:28.706Z,1.20
2023-02-01T19:13:58.639Z,1.75
2023-02-01T19:16:28.738Z,1.58
2023-02-01T19:18:58.647Z,1.67
2023-02-01T19:21:28.938Z,1.50
2023-02-01T19:23:59.512Z,1.73
2023-02-01T19:26:29.611Z,1.30
2023-02-01T19:29:02.816Z,1.67
2023-02-01T19:31:33.047Z,1.20
2023-02-01T19:34:03.336Z,1.75
2023-02-01T19:36:33.647Z,1.60
2023-02-01T19:39:03.736Z,1.42
2023-02-01T19:44:05.467Z,1.52
2023-02-01T19:46:35.521Z,1.50
2023-02-01T19:49:05.769Z,1.60
2023-02-01T19:51:36.303Z,1.60
2023-02-01T19:54:07.613Z,1.65
2023-02-01T19:56:38.199Z,1.55
2023-02-01T19:59:08.545Z,1.33
2023-02-01T20:01:39.278Z,1.60
2023-02-01T20:04:10.382Z,1.45
2023-02-01T20:06:47.321Z,1.77
2023-02-01T20:09:26.180Z,1.52
2023-02-01T20:11:56.334Z,1.67
2023-02-01T20:14:28.331Z,1.60
2023-02-01T20:16:58.436Z,1.73
2023-02-01T20:19:28.865Z,1.20
2023-02-01T20:22:00.550Z,1.42
2023-02-01T20:24:31.067Z,2.28
2023-02-01T20:27:01.857Z,1.33
2023-02-01T20:29:31.713Z,1.20
2023-02-01T20:34:30.868Z,1.10
2023-02-01T20:37:01.009Z,1.30
2023-02-01T20:39:31.411Z,1.25
2023-02-01T20:42:01.491Z,1.05
2023-02-01T20:44:31.657Z,1.40
2023-02-01T20:47:04.264Z,1.05
2023-02-01T20:49:35.778Z,1.20
2023-02-01T20:52:05.950Z,1.05
2023-02-01T20:54:36.118Z,1.13
2023-02-01T20:57:06.220Z,1.45
2023-02-01T20:59:36.447Z,1.23
2023-02-01T21:02:06.700Z,1.25
2023-02-01T21:04:37.337Z,1.30
2023-02-01T21:07:08.377Z,0.98
2023-02-01T21:09:41.901Z,1.30
2023-02-01T21:12:12.065Z,1.13
2023-02-01T21:14:42.199Z,0.88
2023-02-01T21:17:13.297Z,1.20
2023-02-01T21:19:46.348Z,1.63
2023-02-01T21:22:17.277Z,1.60
2023-02-01T21:24:47.699Z,1.30
2023-02-01T21:27:18.465Z,1.30
2023-02-01T21:29:48.635Z,1.20
2023-02-01T21:32:18.766Z,1.23
2023-02-01T21:37:18.198Z,1.23
2023-02-01T21:39:48.282Z,1.30
2023-02-01T21:42:19.598Z,1.38
2023-02-01T21:44:50.534Z,1.70
2023-02-01T21:47:26.255Z,1.30
2023-02-01T21:49:57.114Z,1.30
2023-02-01T21:52:29.025Z,1.40
2023-02-01T21:55:00.671Z,1.63
2023-02-01T21:57:31.433Z,1.50
2023-02-01T22:00:01.863Z,1.30
2023-02-01T22:02:34.024Z,1.27
2023-02-01T22:05:06.410Z,1.50
2023-02-01T22:07:37.372Z,0.88
2023-02-01T22:10:08.536Z,1.60
2023-02-01T22:12:38.635Z,1.50
2023-02-01T22:15:09.145Z,1.48
2023-02-01T22:17:39.322Z,1.10
2023-02-01T22:20:10.055Z,1.25
2023-02-01T22:22:40.505Z,0.90
2023-02-01T22:25:13.292Z,1.25
2023-02-01T22:28:30.825Z,1.30
2023-02-01T22:30:33.891Z,1.08
2023-02-01T22:33:04.199Z,1.02
2023-02-01T22:35:35.043Z,1.10
2023-02-01T22:38:05.146Z,1.05
2023-02-01T22:40:35.015Z,1.58
2023-02-01T22:43:05.187Z,1.20
2023-02-01T22:45:35.294Z,1.38
2023-02-01T22:48:06.627Z,1.20
2023-02-01T22:50:36.666Z,1.10
2023-02-01T22:53:09.661Z,1.35
2023-02-01T22:55:42.170Z,1.20
2023-02-01T22:58:12.444Z,1.23
2023-02-01T23:00:42.459Z,1.60
2023-02-01T23:03:12.442Z,1.60
2023-02-01T23:05:42.567Z,1.40
2023-02-01T23:08:12.708Z,1.30
2023-02-01T23:10:42.801Z,1.30
2023-02-01T23:13:12.706Z,1.52
2023-02-01T23:15:42.801Z,2.05
2023-02-01T23:18:12.713Z,1.48
2023-02-01T23:20:42.881Z,1.50
2023-02-01T23:23:12.946Z,1.50
2023-02-01T23:25:42.906Z,1.17
2023-02-01T23:28:13.618Z,1.85
2023-02-01T23:30:43.879Z,1.10
2023-02-01T23:33:14.105Z,1.30
2023-02-01T23:38:13.456Z,1.70
2023-02-01T23:43:30.751Z,1.45
2023-02-01T23:46:00.951Z,1.23
2023-02-01T23:48:31.311Z,1.80
2023-02-01T23:51:01.362Z,1.75
2023-02-01T23:56:01.694Z,1.67
2023-02-01T23:58:31.853Z,1.52
